Time;durP1;ratioP1;P1;durP2;ratioP2;P2;SDS_P1;SDS_P2;PMS_P1;PMS_P2;Temp;Humidity;BMP_temperature;BMP_pressure;BME280_temperature;BME280_humidity;BME280_pressure;Samples;Min_cycle;Max_cycle;Signal;HPM_P1;HPM_P2
2023/01/11 00:02:13;;;;;;;0.50;0.50;;;;;;;4.27;100.00;99581.25;5040055;28;20462;-76
2023/01/11 00:04:40;;;;;;;0.50;0.50;;;;;;;4.49;100.00;99570.97;5040048;28;20036;-75
2023/01/11 00:07:06;;;;;;;0.50;0.50;;;;;;;4.60;100.00;99560.84;5056646;28;20040;-77
2023/01/11 00:09:31;;;;;;;0.43;0.43;;;;;;;4.62;100.00;99560.66;5040191;28;20039;-76
2023/01/11 00:11:57;;;;;;;0.30;0.30;;;;;;;4.59;100.00;99561.81;5040107;28;20474;-76
2023/01/11 00:14:23;;;;;;;0.40;0.40;;;;;;;4.61;100.00;99564.31;5039605;28;20032;-75
2023/01/11 00:16:49;;;;;;;2.22;0.50;;;;;;;4.75;100.00;99563.63;5039505;28;20033;-77
2023/01/11 00:19:14;;;;;;;0.95;0.50;;;;;;;4.89;100.00;99572.78;5039787;28;20082;-74
2023/01/11 00:21:40;;;;;;;1.85;0.98;;;;;;;4.80;100.00;99577.28;5039906;28;20037;-76
2023/01/11 00:24:06;;;;;;;0.30;0.30;;;;;;;4.76;100.00;99572.44;5039073;28;20386;-74
2023/01/11 00:26:31;;;;;;;0.40;0.40;;;;;;;4.71;100.00;99572.97;5056130;28;20067;-75
2023/01/11 00:28:57;;;;;;;0.60;0.60;;;;;;;4.73;100.00;99583.44;5055529;28;20036;-75
2023/01/11 00:31:23;;;;;;;0.50;0.50;;;;;;;4.72;100.00;99571.13;5055996;28;20028;-75
2023/01/11 00:33:48;;;;;;;0.60;0.60;;;;;;;4.76;100.00;99581.28;5039738;28;20039;-75
2023/01/11 00:36:14;;;;;;;0.55;0.55;;;;;;;4.82;100.00;99569.97;5039529;28;20028;-75
2023/01/11 00:38:42;;;;;;;0.50;0.50;;;;;;;4.82;100.00;99579.78;5056262;28;20032;-75
2023/01/11 00:49:23;;;;;;;0.40;0.40;;;;;;;5.12;100.00;99578.25;5058586;28;20032;-75
2023/01/11 00:51:49;;;;;;;0.40;0.40;;;;;;;5.21;100.00;99573.72;5039516;28;20469;-75
2023/01/11 00:54:14;;;;;;;0.40;0.40;;;;;;;5.34;100.00;99573.19;5039325;28;20051;-75
2023/01/11 00:56:40;;;;;;;0.50;0.50;;;;;;;5.46;100.00;99583.31;5039378;28;20454;-75
2023/01/11 00:59:08;;;;;;;0.40;0.40;;;;;;;5.54;100.00;99579.78;5039377;28;20545;-75
2023/01/11 01:01:35;;;;;;;0.77;0.45;;;;;;;5.49;100.00;99582.97;5039320;28;20123;-75
2023/01/11 01:04:00;;;;;;;0.80;0.70;;;;;;;5.47;100.00;99600.13;5022939;28;20040;-75
2023/01/11 01:06:26;;;;;;;0.60;0.60;;;;;;;5.40;100.00;99594.69;5055730;28;20039;-74
2023/01/11 01:08:52;;;;;;;0.60;0.60;;;;;;;5.44;100.00;99613.81;5071830;28;20085;-75
2023/01/11 01:11:18;;;;;;;0.57;0.57;;;;;;;5.44;100.00;99606.66;5055181;28;20115;-76
2023/01/11 01:16:28;;;;;;;1.65;0.60;;;;;;;5.13;100.00;99601.22;5072051;28;20048;-75
2023/01/11 01:18:56;;;;;;;0.50;0.50;;;;;;;5.02;100.00;99590.91;5039043;28;20467;-76
2023/01/11 01:21:22;;;;;;;0.50;0.50;;;;;;;4.85;100.00;99582.94;5039477;28;20028;-75
2023/01/11 01:23:51;;;;;;;1.52;0.60;;;;;;;4.75;100.00;99595.59;5039016;28;20181;-75
2023/01/11 01:26:16;;;;;;;0.50;0.50;;;;;;;4.71;100.00;99602.25;5039109;28;20033;-74
2023/01/11 01:28:42;;;;;;;0.45;0.45;;;;;;;4.59;100.00;99584.94;5041092;28;20073;-74
2023/01/11 01:31:07;;;;;;;0.50;0.50;;;;;;;4.57;100.00;99597.59;5059795;28;20150;-75
2023/01/11 01:33:33;;;;;;;0.45;0.45;;;;;;;4.54;100.00;99608.56;5043200;28;20466;-75
2023/01/11 01:36:03;;;;;;;0.82;0.60;;;;;;;4.56;100.00;99595.94;5059620;28;20043;-74
2023/01/11 01:38:29;;;;;;;0.45;0.45;;;;;;;4.59;100.00;99601.75;5042733;28;20040;-75
2023/01/11 01:40:55;;;;;;;0.40;0.40;;;;;;;4.57;100.00;99608.22;5043143;28;20497;-74
2023/01/11 01:43:22;;;;;;;0.40;0.40;;;;;;;4.58;100.00;99601.94;5059441;28;20033;-75
2023/01/11 01:45:51;;;;;;;0.40;0.40;;;;;;;4.40;100.00;99610.06;5059206;28;20045;-75
2023/01/11 01:48:22;;;;;;;0.40;0.40;;;;;;;4.33;100.00;99617.84;5060013;28;20063;-75
2023/01/11 01:50:52;;;;;;;0.40;0.40;;;;;;;4.26;100.00;99614.19;5059271;28;20082;-75
2023/01/11 01:53:21;;;;;;;0.50;0.50;;;;;;;4.24;100.00;99607.38;5042598;28;20043;-75
2023/01/11 01:55:56;;;;;;;1.13;0.50;;;;;;;4.29;100.00;99613.03;5059389;28;20039;-74
2023/01/11 01:58:26;;;;;;;0.63;0.50;;;;;;;4.46;100.00;99620.03;5059243;28;20090;-74
2023/01/11 02:00:52;;;;;;;0.50;0.50;;;;;;;4.51;100.00;99619.56;5042383;28;20424;-75
2023/01/11 02:03:21;;;;;;;0.73;0.50;;;;;;;4.67;100.00;99632.03;5059115;28;20535;-75
2023/01/11 02:05:47;;;;;;;0.50;0.50;;;;;;;4.86;100.00;99626.38;5075474;28;20466;-75
2023/01/11 02:08:38;;;;;;;0.50;0.50;;;;;;;5.02;100.00;99639.69;5042510;28;20049;-75
2023/01/11 02:11:28;;;;;;;0.40;0.40;;;;;;;5.07;100.00;99636.53;5058077;28;20041;-74
2023/01/11 02:13:50;;;;;;;0.50;0.50;;;;;;;5.06;100.00;99648.19;5061713;28;20028;-75
2023/01/11 02:16:16;;;;;;;0.40;0.40;;;;;;;5.07;100.00;99633.88;5042274;28;20455;-78
2023/01/11 02:18:42;;;;;;;0.65;0.50;;;;;;;5.00;100.00;99633.72;5042449;28;20044;-76
2023/01/11 02:21:28;;;;;;;0.55;0.55;;;;;;;5.00;100.00;99630.19;5042306;28;20028;-76
2023/01/11 02:24:14;;;;;;;0.80;0.63;;;;;;;5.19;100.00;99645.03;5058937;28;20389;-75
2023/01/11 02:26:46;;;;;;;1.58;1.48;;;;;;;5.34;100.00;99648.66;5057992;28;20115;-74
2023/01/11 02:29:15;;;;;;;0.60;0.60;;;;;;;5.44;100.00;99654.63;5058680;28;20032;-75
2023/01/11 02:31:50;;;;;;;0.50;0.50;;;;;;;5.45;100.00;99669.66;5058287;28;20474;-75
2023/01/11 02:34:37;;;;;;;10.60;1.42;;;;;;;5.54;100.00;99666.97;5058436;28;20028;-75
2023/01/11 02:37:18;;;;;;;2.03;0.80;;;;;;;5.34;100.00;99653.97;5058180;28;20394;-77
2023/01/11 02:39:46;;;;;;;2.63;2.05;;;;;;;5.00;100.00;99660.38;5058352;28;20127;-75
2023/01/11 02:45:23;;;;;;;0.50;0.50;;;;;;;4.60;100.00;99647.84;5060927;28;20044;-76
2023/01/11 02:47:59;;;;;;;0.50;0.50;;;;;;;4.61;100.00;99662.81;5058471;28;20043;-76
2023/01/11 02:50:47;;;;;;;0.40;0.40;;;;;;;4.52;100.00;99651.31;5057732;28;20041;-76
2023/01/11 02:53:24;;;;;;;0.40;0.40;;;;;;;4.41;100.00;99660.44;5041733;28;20534;-76
2023/01/11 02:55:54;;;;;;;0.40;0.40;;;;;;;4.37;100.00;99661.78;5074432;28;20479;-75
2023/01/11 02:58:22;;;;;;;0.50;0.50;;;;;;;4.46;100.00;99654.63;5041641;28;20044;-73
2023/01/11 03:00:48;;;;;;;0.50;0.50;;;;;;;4.47;100.00;99656.28;5041507;28;20093;-76
2023/01/11 03:03:17;;;;;;;0.47;0.47;;;;;;;4.52;100.00;99655.81;5057801;28;20470;-75
2023/01/11 03:05:46;;;;;;;0.50;0.50;;;;;;;4.52;100.00;99663.78;5057942;28;20033;-76
2023/01/11 03:08:28;;;;;;;0.40;0.40;;;;;;;4.47;100.00;99655.47;5041617;28;20093;-76
2023/01/11 03:11:01;;;;;;;3.10;0.52;;;;;;;4.42;100.00;99653.31;5074651;28;20027;-76
2023/01/11 03:13:54;;;;;;;0.40;0.40;;;;;;;4.45;100.00;99646.84;5057883;28;20040;-76
2023/01/11 03:16:50;;;;;;;0.40;0.40;;;;;;;4.49;100.00;99637.50;5041182;28;20037;-75
2023/01/11 03:19:41;;;;;;;0.45;0.45;;;;;;;4.52;100.00;99642.50;5057895;28;20032;-76
2023/01/11 03:22:14;;;;;;;0.50;0.50;;;;;;;4.48;100.00;99649.16;5041380;28;20109;-75
2023/01/11 03:24:56;;;;;;;0.50;0.50;;;;;;;4.52;100.00;99648.66;5074010;28;20382;-77
2023/01/11 03:27:34;;;;;;;0.70;0.50;;;;;;;4.45;100.00;99628.19;5074448;28;20033;-75
2023/01/11 03:30:17;;;;;;;0.50;0.50;;;;;;;4.59;100.00;99655.00;5041147;28;20136;-76
2023/01/11 03:32:53;;;;;;;0.43;0.43;;;;;;;4.61;100.00;99649.50;5040799;28;20043;-76
2023/01/11 03:35:39;;;;;;;0.50;0.50;;;;;;;4.62;100.00;99644.00;5073675;28;20036;-75
2023/01/11 03:38:10;;;;;;;0.70;0.70;;;;;;;4.67;100.00;99640.84;5073840;28;20035;-76
2023/01/11 03:40:39;;;;;;;0.40;0.40;;;;;;;4.68;100.00;99637.19;5057160;28;20032;-75
2023/01/11 03:43:11;;;;;;;0.52;0.52;;;;;;;4.63;100.00;99635.03;5057485;28;20040;-75
2023/01/11 03:45:45;;;;;;;0.50;0.50;;;;;;;4.66;100.00;99635.69;5057527;28;20044;-75
2023/01/11 03:48:19;;;;;;;0.50;0.50;;;;;;;4.70;100.00;99618.41;5057329;28;20036;-76
2023/01/11 03:50:46;;;;;;;3.65;0.70;;;;;;;4.73;100.00;99624.22;5040053;28;20032;-76
2023/01/11 03:53:13;;;;;;;0.60;0.60;;;;;;;4.82;100.00;99622.41;5056863;28;20036;-75
2023/01/11 03:55:41;;;;;;;1.10;0.52;;;;;;;4.94;100.00;99631.69;5040520;28;20029;-76
2023/01/11 03:58:10;;;;;;;1.13;0.98;;;;;;;4.96;100.00;99624.38;5040150;28;20115;-75
2023/01/11 04:00:36;;;;;;;3.20;0.80;;;;;;;4.94;100.00;99613.06;5056641;28;20077;-75
2023/01/11 04:03:02;;;;;;;8.55;1.38;;;;;;;4.90;100.00;99618.91;5073416;28;20040;-76
2023/01/11 04:05:28;;;;;;;2.45;1.27;;;;;;;4.89;100.00;99607.41;5056559;28;20107;-76
2023/01/11 04:07:54;;;;;;;6.85;1.92;;;;;;;4.90;100.00;99603.75;5056456;28;20115;-76
2023/01/11 04:10:20;;;;;;;2.00;0.95;;;;;;;5.07;100.00;99609.88;5040217;28;20383;-76
2023/01/11 04:12:48;;;;;;;10.93;2.10;;;;;;;5.03;100.00;99598.75;5040061;28;20032;-76
2023/01/11 04:15:14;;;;;;;7.30;1.50;;;;;;;5.09;100.00;99607.06;5039906;28;20046;-77
2023/01/11 04:17:41;;;;;;;11.30;2.42;;;;;;;4.98;100.00;99592.25;5073068;28;20560;-75
2023/01/11 04:20:08;;;;;;;3.55;1.42;;;;;;;5.06;100.00;99608.25;5056246;28;20086;-76
2023/01/11 04:22:34;;;;;;;11.32;2.05;;;;;;;5.10;100.00;99592.72;5072939;28;20035;-75
2023/01/11 04:25:00;;;;;;;14.13;2.22;;;;;;;5.21;100.00;99595.03;5040072;28;20037;-77
2023/01/11 04:27:26;;;;;;;6.72;1.20;;;;;;;5.47;100.00;99602.81;5039987;28;20032;-76
2023/01/11 04:29:52;;;;;;;11.27;1.98;;;;;;;5.66;100.00;99607.75;5039986;28;20076;-76
2023/01/11 04:32:17;;;;;;;15.02;3.08;;;;;;;5.89;100.00;99607.00;5039923;28;20064;-76
2023/01/11 04:34:43;;;;;;;4.10;1.42;;;;;;;5.97;100.00;99632.84;5039712;28;20034;-76
2023/01/11 04:37:10;;;;;;;5.93;2.78;;;;;;;5.87;100.00;99662.34;5039193;28;20029;-76
2023/01/11 04:39:37;;;;;;;6.60;2.08;;;;;;;5.71;100.00;99656.06;5039956;28;20039;-76
2023/01/11 04:42:18;;;;;;;6.32;1.92;;;;;;;5.57;100.00;99632.78;5039690;28;20040;-76
2023/01/11 04:44:46;;;;;;;1.63;1.05;;;;;;;5.43;100.00;99644.16;5041762;28;20052;-76
2023/01/11 04:47:12;;;;;;;6.60;1.15;;;;;;;5.25;100.00;99593.72;5056129;28;20545;-76
2023/01/11 04:49:38;;;;;;;1.70;0.65;;;;;;;5.21;100.00;99569.25;5056037;28;20112;-75
2023/01/11 04:52:04;;;;;;;1.30;0.60;;;;;;;5.06;100.00;99571.75;5055902;28;20041;-75
2023/01/11 04:54:30;;;;;;;1.00;0.68;;;;;;;4.89;100.00;99571.94;5056025;28;20547;-75
2023/01/11 04:56:56;;;;;;;0.85;0.60;;;;;;;4.82;100.00;99579.78;5039412;28;20028;-75
2023/01/11 04:59:22;;;;;;;0.60;0.60;;;;;;;4.74;100.00;99599.25;5055859;28;20032;-75
2023/01/11 05:01:48;;;;;;;0.50;0.50;;;;;;;4.75;100.00;99611.56;5039043;28;20059;-75
2023/01/11 05:04:13;;;;;;;0.40;0.40;;;;;;;4.76;100.00;99620.38;5038599;28;20099;-76
2023/01/11 05:06:39;;;;;;;0.40;0.40;;;;;;;4.69;100.00;99630.06;5039418;28;20175;-75
2023/01/11 05:09:06;;;;;;;0.40;0.40;;;;;;;4.63;100.00;99620.88;5055856;28;20036;-75
2023/01/11 05:11:32;;;;;;;0.40;0.40;;;;;;;4.60;100.00;99618.53;5039291;28;20036;-75
2023/01/11 05:13:58;;;;;;;2.65;0.60;;;;;;;4.73;100.00;99608.22;5039305;28;20029;-76
2023/01/11 05:16:24;;;;;;;0.50;0.50;;;;;;;5.10;100.00;99614.06;5055352;28;20474;-75
2023/01/11 05:18:55;;;;;;;0.50;0.50;;;;;;;5.39;100.00;99608.16;5072167;28;20029;-76
2023/01/11 05:21:24;;;;;;;0.95;0.70;;;;;;;5.58;100.00;99593.59;5056109;28;20032;-75
2023/01/11 05:23:50;;;;;;;0.50;0.50;;;;;;;5.70;100.00;99593.06;5072278;28;20040;-75
2023/01/11 05:26:23;;;;;;;1.38;0.77;;;;;;;5.83;100.00;99589.03;5039319;28;20079;-75
2023/01/11 05:28:50;;;;;;;1.95;0.82;;;;;;;5.91;100.00;99578.31;5055760;28;20039;-76
2023/01/11 05:31:16;;;;;;;0.50;0.50;;;;;;;5.86;100.00;99578.81;5072312;28;20041;-75
2023/01/11 05:33:42;;;;;;;0.50;0.50;;;;;;;5.69;100.00;99567.41;5072061;28;20066;-74
2023/01/11 05:36:14;;;;;;;0.47;0.47;;;;;;;5.62;100.00;99557.59;5039001;28;20181;-75
2023/01/11 05:38:40;;;;;;;0.68;0.50;;;;;;;5.42;100.00;99575.84;5039009;28;20075;-75
2023/01/11 05:41:07;;;;;;;3.42;0.93;;;;;;;5.22;100.00;99581.56;5038933;28;20059;-75
2023/01/11 05:45:27;;;;;;;3.30;1.00;;;;;;;5.25;100.00;99575.06;5071858;28;20094;-75
2023/01/11 05:46:24;;;;;;;0.52;0.52;;;;;;;5.37;100.00;99581.69;5058276;28;20123;-75
2023/01/11 05:48:50;;;;;;;0.60;0.60;;;;;;;5.45;100.00;99592.34;5071831;28;20028;-75
2023/01/11 05:51:16;;;;;;;0.57;0.50;;;;;;;5.56;100.00;99576.94;5055287;28;20029;-75
2023/01/11 05:53:41;;;;;;;0.95;0.70;;;;;;;5.66;100.00;99585.56;5055186;28;20470;-75
2023/01/11 05:56:07;;;;;;;1.10;0.70;;;;;;;5.70;100.00;99590.41;5038547;28;20060;-75
2023/01/11 05:58:33;;;;;;;0.60;0.60;;;;;;;5.72;100.00;99584.91;5038991;28;20437;-75
2023/01/11 06:00:59;;;;;;;2.75;0.63;;;;;;;5.74;100.00;99590.88;5054964;28;20024;-75
2023/01/11 06:03:25;;;;;;;0.40;0.40;;;;;;;5.83;100.00;99592.50;5038863;28;20090;-75
2023/01/11 06:05:51;;;;;;;0.50;0.50;;;;;;;5.89;100.00;99582.97;5038862;28;20037;-74
2023/01/11 06:08:17;;;;;;;0.40;0.40;;;;;;;5.87;100.00;99575.13;5055380;28;20481;-75
2023/01/11 06:10:49;;;;;;;0.50;0.50;;;;;;;5.79;100.00;99583.19;5038764;28;20040;-74
2023/01/11 06:13:26;;;;;;;0.38;0.38;;;;;;;5.69;100.00;99572.75;5038862;28;20125;-76
2023/01/11 06:16:03;;;;;;;0.40;0.40;;;;;;;5.55;100.00;99569.97;5043947;28;20029;-75
2023/01/11 06:18:32;;;;;;;0.40;0.40;;;;;;;5.79;100.00;99599.19;5042348;28;20042;-75
2023/01/11 06:20:59;;;;;;;0.38;0.38;;;;;;;5.88;100.00;99600.00;5075127;28;20031;-75
2023/01/11 06:23:27;;;;;;;1.42;0.55;;;;;;;5.92;100.00;99618.13;5042410;28;20041;-75
2023/01/11 06:25:53;;;;;;;0.50;0.50;;;;;;;5.81;100.00;99609.69;5075329;28;20044;-76
2023/01/11 06:28:19;;;;;;;0.40;0.40;;;;;;;5.65;100.00;99614.09;5042159;28;20495;-76
2023/01/11 06:30:53;;;;;;;2.30;0.60;;;;;;;5.54;100.00;99589.63;5042169;28;20098;-76
2023/01/11 06:33:19;;;;;;;0.50;0.50;;;;;;;5.47;100.00;99592.16;5042250;28;20028;-75
2023/01/11 06:35:45;;;;;;;0.40;0.40;;;;;;;5.33;100.00;99585.69;5058850;28;20139;-76
2023/01/11 06:38:12;;;;;;;0.60;0.60;;;;;;;5.16;100.00;99598.22;5058398;28;20530;-75
2023/01/11 06:40:39;;;;;;;2.83;0.60;;;;;;;5.03;100.00;99604.06;5076633;28;20028;-76
2023/01/11 06:43:05;;;;;;;0.50;0.50;;;;;;;4.90;100.00;99595.75;5043153;28;20040;-75
2023/01/11 06:45:31;;;;;;;0.50;0.45;;;;;;;4.84;100.00;99585.75;5075099;28;20039;-75
2023/01/11 06:47:57;;;;;;;0.60;0.60;;;;;;;4.91;100.00;99577.94;5041856;28;20032;-76
2023/01/11 06:50:23;;;;;;;0.40;0.40;;;;;;;5.06;100.00;99576.25;5041799;28;20033;-75
2023/01/11 06:52:55;;;;;;;0.57;0.52;;;;;;;5.28;100.00;99561.38;5041419;28;20036;-75
2023/01/11 06:55:23;;;;;;;0.50;0.50;;;;;;;5.40;100.00;99552.03;5057938;28;20028;-75
2023/01/11 06:57:48;;;;;;;0.52;0.52;;;;;;;5.45;100.00;99543.50;5058114;28;20029;-75
2023/01/11 07:00:15;;;;;;;0.40;0.40;;;;;;;5.42;100.00;99543.84;5058333;28;20029;-76
2023/01/11 07:02:41;;;;;;;0.40;0.40;;;;;;;5.44;100.00;99564.00;5041757;28;20070;-75
2023/01/11 07:05:07;;;;;;;0.40;0.40;;;;;;;5.57;100.00;99560.78;5058326;28;20059;-75
2023/01/11 07:07:33;;;;;;;0.40;0.40;;;;;;;5.73;100.00;99568.72;5057993;28;20031;-75
2023/01/11 07:09:58;;;;;;;0.47;0.47;;;;;;;5.77;100.00;99585.22;5041084;28;20386;-76
2023/01/11 07:12:24;;;;;;;0.40;0.40;;;;;;;5.80;100.00;99586.72;5040973;28;20028;-77
2023/01/11 07:14:50;;;;;;;3.90;0.80;;;;;;;5.80;100.00;99590.19;5041046;28;20032;-75
2023/01/11 07:17:15;;;;;;;1.25;0.57;;;;;;;5.81;100.00;99599.03;5041054;28;20102;-75
2023/01/11 07:19:41;;;;;;;2.95;0.65;;;;;;;5.74;100.00;99588.19;5041433;28;20037;-75
2023/01/11 07:22:07;;;;;;;0.90;0.70;;;;;;;5.71;100.00;99592.06;5040972;28;20036;-74
2023/01/11 07:24:33;;;;;;;1.20;0.50;;;;;;;5.72;100.00;99588.41;5040726;28;20040;-75
2023/01/11 07:27:00;;;;;;;0.40;0.40;;;;;;;5.72;100.00;99588.41;5039966;28;20127;-76
2023/01/11 07:29:26;;;;;;;0.40;0.40;;;;;;;5.61;100.00;99569.25;5074040;28;20363;-74
2023/01/11 07:31:55;;;;;;;2.13;0.70;;;;;;;5.67;100.00;99576.59;5057672;28;20033;-74
2023/01/11 07:34:22;;;;;;;1.25;0.40;;;;;;;5.63;100.00;99572.59;5074074;28;20458;-74
2023/01/11 07:36:49;;;;;;;0.77;0.70;;;;;;;5.62;100.00;99590.44;5057718;28;20501;-74
2023/01/11 07:39:14;;;;;;;3.50;0.75;;;;;;;5.65;100.00;99584.75;5040867;28;20036;-75
2023/01/11 07:44:24;;;;;;;0.40;0.40;;;;;;;5.90;100.00;99574.81;5073963;28;20402;-75
2023/01/11 07:46:50;;;;;;;0.60;0.60;;;;;;;6.02;100.00;99561.94;5073126;28;20032;-75
2023/01/11 07:49:15;;;;;;;0.40;0.40;;;;;;;6.11;100.00;99560.88;5057155;28;20099;-74
2023/01/11 07:51:41;;;;;;;0.40;0.40;;;;;;;6.14;100.00;99576.53;5040688;28;20390;-74
2023/01/11 07:54:06;;;;;;;0.40;0.40;;;;;;;6.16;100.00;99579.84;5040214;28;20024;-75
2023/01/11 07:56:32;;;;;;;0.60;0.60;;;;;;;6.11;100.00;99544.03;5039844;28;20029;-75
2023/01/11 07:58:58;;;;;;;0.88;0.70;;;;;;;5.98;100.00;99549.97;5040198;28;20425;-75
2023/01/11 08:01:24;;;;;;;5.32;1.38;;;;;;;5.82;100.00;99529.50;5040473;28;20044;-75
2023/01/11 08:03:50;;;;;;;0.63;0.63;;;;;;;5.73;100.00;99551.88;5040254;28;20482;-76
2023/01/11 08:06:16;;;;;;;1.02;0.68;;;;;;;5.66;100.00;99558.91;5040038;28;20024;-75
2023/01/11 08:08:43;;;;;;;0.50;0.50;;;;;;;5.63;100.00;99551.25;5056635;28;20036;-75
2023/01/11 08:16:37;;;;;;;0.50;0.50;;;;;;;5.63;100.00;99536.09;5072957;28;20024;-74
2023/01/11 08:19:06;;;;;;;0.43;0.43;;;;;;;5.69;100.00;99529.25;5040832;28;20036;-75
2023/01/11 08:21:32;;;;;;;0.63;0.60;;;;;;;5.75;100.00;99511.72;5040030;28;20445;-74
2023/01/11 08:23:58;;;;;;;1.45;0.63;;;;;;;5.83;100.00;99519.66;5039789;28;20040;-74
2023/01/11 08:26:24;;;;;;;1.10;0.57;;;;;;;5.83;100.00;99515.16;5039950;28;20024;-75
2023/01/11 08:28:50;;;;;;;0.55;0.55;;;;;;;5.88;100.00;99509.31;5039801;28;20028;-74
2023/01/11 08:31:16;;;;;;;1.20;0.80;;;;;;;5.98;100.00;99507.28;5039454;28;20351;-74
2023/01/11 08:33:42;;;;;;;1.38;0.65;;;;;;;6.01;100.00;99506.09;5055959;28;20028;-75
2023/01/11 08:36:10;;;;;;;1.88;0.60;;;;;;;6.08;100.00;99515.84;5039459;28;20527;-74
2023/01/11 08:38:35;;;;;;;0.65;0.57;;;;;;;6.10;100.00;99518.34;5039540;28;20474;-74
2023/01/11 08:41:02;;;;;;;0.60;0.60;;;;;;;6.13;100.00;99531.34;5055835;28;20036;-75
2023/01/11 08:43:30;;;;;;;0.52;0.52;;;;;;;6.10;100.00;99516.50;5056079;28;20539;-76
2023/01/11 08:45:57;;;;;;;0.50;0.50;;;;;;;6.12;100.00;99538.53;5039785;28;20033;-74
2023/01/11 08:48:22;;;;;;;0.60;0.60;;;;;;;5.96;100.00;99495.94;5055838;28;20424;-75
2023/01/11 08:50:56;;;;;;;0.63;0.50;;;;;;;5.85;100.00;99520.31;5038573;28;20135;-76
2023/01/11 08:53:24;;;;;;;0.45;0.45;;;;;;;5.77;100.00;99515.88;5071946;28;20036;-76
2023/01/11 08:55:50;;;;;;;6.50;1.30;;;;;;;5.77;100.00;99520.34;5038925;28;20043;-75
2023/01/11 08:58:16;;;;;;;0.77;0.70;;;;;;;5.78;100.00;99570.03;5039425;28;20036;-75
2023/01/11 09:00:42;;;;;;;0.60;0.60;;;;;;;5.70;100.00;99590.41;5038914;28;20391;-75
2023/01/11 09:03:10;;;;;;;1.60;0.70;;;;;;;5.62;100.00;99605.59;5038939;28;20039;-75
2023/01/11 09:05:40;;;;;;;3.25;0.90;;;;;;;5.41;100.00;99590.19;5039523;28;20462;-74
2023/01/11 09:08:07;;;;;;;0.85;0.70;;;;;;;5.02;100.00;99549.09;5039301;28;20036;-75
2023/01/11 09:10:33;;;;;;;2.40;0.85;;;;;;;4.85;100.00;99537.66;5072349;28;20086;-75
2023/01/11 09:12:59;;;;;;;0.82;0.60;;;;;;;4.68;100.00;99551.97;5022840;28;20068;-74
2023/01/11 09:15:25;;;;;;;0.55;0.40;;;;;;;4.60;100.00;99559.97;5072062;28;20028;-74
2023/01/11 09:17:52;;;;;;;0.65;0.60;;;;;;;4.56;100.00;99545.34;5038950;28;20052;-75
2023/01/11 09:20:18;;;;;;;1.02;0.52;;;;;;;4.58;100.00;99551.34;5055781;28;20377;-74
2023/01/11 09:22:50;;;;;;;0.43;0.43;;;;;;;4.61;100.00;99551.00;5071896;28;20483;-75
2023/01/11 09:25:17;;;;;;;0.50;0.50;;;;;;;4.65;100.00;99525.69;5055553;28;20474;-76
2023/01/11 09:27:43;;;;;;;3.17;0.98;;;;;;;4.66;100.00;99548.69;5071877;28;20025;-74
2023/01/11 09:30:10;;;;;;;0.40;0.40;;;;;;;4.69;100.00;99558.16;5055542;28;20033;-75
2023/01/11 09:32:36;;;;;;;0.60;0.60;;;;;;;4.67;100.00;99560.16;5055231;28;20040;-76
2023/01/11 09:35:03;;;;;;;0.60;0.60;;;;;;;4.57;100.00;99541.69;5039107;28;20033;-75
2023/01/11 09:37:30;;;;;;;4.13;0.95;;;;;;;4.81;100.00;99544.31;5038804;28;20044;-74
2023/01/11 09:39:58;;;;;;;0.50;0.50;;;;;;;4.88;100.00;99544.47;5037174;28;20471;-74
2023/01/11 09:42:36;;;;;;;2.55;0.90;;;;;;;4.96;100.00;99519.66;5055337;28;20542;-74
2023/01/11 09:45:18;;;;;;;2.65;0.60;;;;;;;5.03;100.00;99502.00;5055605;28;20032;-75
2023/01/11 09:47:59;;;;;;;0.40;0.40;;;;;;;5.18;100.00;99505.59;5054785;28;20306;-77
2023/01/11 09:50:28;;;;;;;0.40;0.40;;;;;;;5.26;100.00;99497.56;5074854;28;20382;-77
2023/01/11 09:53:03;;;;;;;0.63;0.50;;;;;;;5.25;100.00;99521.75;5076043;28;20028;-77
2023/01/11 09:55:40;;;;;;;0.90;0.50;;;;;;;5.31;100.00;99553.03;5043344;28;20036;-77
2023/01/11 09:58:22;;;;;;;0.40;0.40;;;;;;;5.23;100.00;99558.41;5058891;28;20036;-78
2023/01/11 10:00:54;;;;;;;0.57;0.57;;;;;;;5.22;100.00;99548.75;5077000;28;20443;-78
2023/01/11 10:03:42;;;;;;;1.33;0.60;;;;;;;5.36;100.00;99541.88;5076944;28;20108;-77
2023/01/11 10:06:23;;;;;;;0.75;0.60;;;;;;;5.43;100.00;99569.50;5075431;28;20021;-77
2023/01/11 10:08:49;;;;;;;1.73;0.50;;;;;;;5.47;100.00;99557.50;5058775;28;20028;-76
2023/01/11 10:11:26;;;;;;;0.80;0.73;;;;;;;5.45;100.00;99543.50;5075200;28;20486;-76
2023/01/11 10:14:24;;;;;;;0.50;0.50;;;;;;;5.53;100.00;99532.81;5058930;28;20035;-76
2023/01/11 10:17:00;;;;;;;1.73;1.60;;;;;;;5.56;100.00;99550.28;5076144;28;20608;-76
2023/01/11 10:19:31;;;;;;;4.40;1.05;;;;;;;5.48;100.00;99549.31;5075373;28;20116;-76
2023/01/11 10:22:08;;;;;;;0.40;0.40;;;;;;;5.38;100.00;99543.38;5075016;28;20037;-76
2023/01/11 10:24:45;;;;;;;0.40;0.40;;;;;;;5.24;100.00;99555.56;5075414;28;20055;-76
2023/01/11 10:27:24;;;;;;;0.65;0.60;;;;;;;5.32;100.00;99549.38;5058705;28;20478;-76
2023/01/11 10:30:27;;;;;;;1.23;0.50;;;;;;;5.67;100.00;99541.91;5075376;28;20032;-76
2023/01/11 10:38:58;;;;;;;1.75;0.70;;;;;;;6.27;100.00;99551.09;5075351;28;20025;-77
2023/01/11 10:41:39;;;;;;;0.40;0.40;;;;;;;6.25;100.00;99539.78;5060051;28;20028;-76
2023/01/11 10:44:11;;;;;;;0.63;0.60;;;;;;;6.11;100.00;99536.88;5075003;28;20043;-76
2023/01/11 10:46:40;;;;;;;0.52;0.52;;;;;;;6.32;100.00;99556.72;5041182;28;20064;-76
2023/01/11 10:49:38;;;;;;;0.40;0.40;;;;;;;6.38;100.00;99534.69;5074632;28;20025;-76
2023/01/11 10:52:28;;;;;;;0.50;0.50;;;;;;;6.88;100.00;99527.03;5049964;28;20036;-76
2023/01/11 10:54:56;;;;;;;4.03;1.85;;;;;;;7.36;100.00;99531.06;5074460;28;20506;-76
2023/01/11 10:57:25;;;;;;;1.23;0.75;;;;;;;7.57;100.00;99495.53;5074083;28;20028;-75
2023/01/11 11:00:06;;;;;;;1.08;0.95;;;;;;;8.15;100.00;99515.13;5057524;28;20047;-78
2023/01/11 11:03:02;;;;;;;1.40;0.70;;;;;;;8.02;100.00;99527.50;5075077;28;20029;-78
2023/01/11 11:05:37;;;;;;;1.65;0.77;;;;;;;7.63;100.00;99545.59;5067437;28;20044;-78
2023/01/11 11:08:30;;;;;;;1.42;0.70;;;;;;;8.03;100.00;99566.66;5057488;28;20043;-78
2023/01/11 11:11:02;;;;;;;1.20;0.60;;;;;;;8.15;100.00;99554.47;5041025;28;20074;-77
2023/01/11 11:13:48;;;;;;;0.40;0.40;;;;;;;7.84;100.00;99565.41;5074454;28;20108;-77
2023/01/11 11:16:27;;;;;;;2.38;0.80;;;;;;;7.46;100.00;99561.03;5074587;28;20191;-77
2023/01/11 11:18:57;;;;;;;4.90;1.02;;;;;;;7.43;100.00;99573.91;5057547;28;20037;-77
2023/01/11 11:21:27;;;;;;;2.47;0.77;;;;;;;7.39;100.00;99586.84;5041392;28;20490;-78
2023/01/11 11:24:18;;;;;;;0.40;0.40;;;;;;;7.18;100.00;99600.94;5041148;28;20425;-77
2023/01/11 11:26:51;;;;;;;15.38;3.00;;;;;;;6.98;100.00;99630.00;5066856;28;20097;-77
2023/01/11 11:29:22;;;;;;;0.75;0.50;;;;;;;6.66;100.00;99632.94;5074477;28;20085;-77
2023/01/11 11:31:48;;;;;;;2.88;1.10;;;;;;;6.42;100.00;99621.41;5057508;28;20037;-76
2023/01/11 11:34:18;;;;;;;5.82;1.20;;;;;;;6.21;100.00;99618.53;5073940;28;20490;-76
2023/01/11 11:36:49;;;;;;;2.42;0.93;;;;;;;5.96;100.00;99617.84;5073902;28;20475;-77
2023/01/11 11:39:29;;;;;;;1.48;0.80;;;;;;;5.73;100.00;99607.88;5040780;28;20063;-77
2023/01/11 11:41:56;;;;;;;0.52;0.52;;;;;;;5.71;100.00;99617.91;5057434;28;20474;-77
2023/01/11 11:44:26;;;;;;;6.60;1.85;;;;;;;5.87;100.00;99609.00;5056777;28;20047;-77
2023/01/11 11:47:11;;;;;;;1.65;1.00;;;;;;;6.09;100.00;99591.44;5040732;28;20056;-77
2023/01/11 11:49:38;;;;;;;0.70;0.70;;;;;;;7.40;100.00;99593.84;5056939;28;20040;-78
2023/01/11 11:52:05;;;;;;;2.30;1.10;;;;;;;7.58;100.00;99584.63;5074443;28;20048;-79
2023/01/11 11:54:33;;;;;;;5.55;0.95;;;;;;;7.72;100.00;99597.16;5040098;28;20458;-78
2023/01/11 11:57:12;;;;;;;4.07;2.15;;;;;;;7.23;100.00;99609.22;5056798;28;20048;-77
2023/01/11 11:59:39;;;;;;;0.82;0.82;;;;;;;6.94;100.00;99603.84;5056959;28;20048;-78
2023/01/11 12:02:24;;;;;;;4.28;1.27;;;;;;;7.02;100.00;99582.38;5040163;28;20033;-77
2023/01/11 12:04:50;;;;;;;1.65;0.85;;;;;;;7.15;100.00;99600.47;5056754;28;20039;-77
2023/01/11 12:07:19;;;;;;;2.47;0.50;;;;;;;7.26;100.00;99618.72;5056332;28;20462;-77
2023/01/11 12:10:10;;;;;;;1.00;0.63;;;;;;;7.43;100.00;99604.16;5072824;28;20035;-77
2023/01/11 12:12:51;;;;;;;0.80;0.80;;;;;;;7.84;100.00;99610.91;5065540;28;20488;-77
2023/01/11 12:15:24;;;;;;;0.50;0.50;;;;;;;8.29;100.00;99608.97;5056587;28;20036;-77
2023/01/11 12:17:50;;;;;;;0.50;0.50;;;;;;;8.34;100.00;99620.78;5056412;28;20470;-77